sensor_id;sensor_type;location;lat;lon;timestamp;P1;durP1;ratioP1;P2;durP2;ratioP2
13469;SDS011;6807;48.682;9.032;2022-10-23T00:01:43;8.32;;;4.47;;
13469;SDS011;6807;48.682;9.032;2022-10-23T00:07:06;7.00;;;3.78;;
13469;SDS011;6807;48.682;9.032;2022-10-23T00:09:32;5.45;;;4.18;;
13469;SDS011;6807;48.682;9.032;2022-10-23T00:11:59;6.43;;;3.40;;
13469;SDS011;6807;48.682;9.032;2022-10-23T00:14:27;6.85;;;3.85;;
13469;SDS011;6807;48.682;9.032;2022-10-23T00:16:54;6.22;;;4.05;;
13469;SDS011;6807;48.682;9.032;2022-10-23T00:19:21;8.13;;;3.60;;
13469;SDS011;6807;48.682;9.032;2022-10-23T00:21:48;8.02;;;3.53;;
13469;SDS011;6807;48.682;9.032;2022-10-23T00:24:18;6.50;;;3.88;;
13469;SDS011;6807;48.682;9.032;2022-10-23T00:26:45;5.90;;;3.85;;
13469;SDS011;6807;48.682;9.032;2022-10-23T00:29:14;4.72;;;3.85;;
13469;SDS011;6807;48.682;9.032;2022-10-23T00:31:45;10.13;;;4.55;;
13469;SDS011;6807;48.682;9.032;2022-10-23T00:37:01;10.68;;;4.82;;
13469;SDS011;6807;48.682;9.032;2022-10-23T00:39:28;6.18;;;3.88;;
13469;SDS011;6807;48.682;9.032;2022-10-23T00:47:35;9.32;;;4.10;;
13469;SDS011;6807;48.682;9.032;2022-10-23T00:50:19;6.80;;;4.10;;
13469;SDS011;6807;48.682;9.032;2022-10-23T00:52:49;6.18;;;4.45;;
13469;SDS011;6807;48.682;9.032;2022-10-23T00:55:18;6.88;;;4.00;;
13469;SDS011;6807;48.682;9.032;2022-10-23T00:58:04;7.45;;;4.50;;
13469;SDS011;6807;48.682;9.032;2022-10-23T01:00:40;6.13;;;4.30;;
13469;SDS011;6807;48.682;9.032;2022-10-23T01:05:56;5.75;;;4.53;;
13469;SDS011;6807;48.682;9.032;2022-10-23T01:08:42;6.68;;;4.18;;
13469;SDS011;6807;48.682;9.032;2022-10-23T01:11:14;6.72;;;4.25;;
13469;SDS011;6807;48.682;9.032;2022-10-23T01:13:47;4.43;;;4.00;;
13469;SDS011;6807;48.682;9.032;2022-10-23T01:16:22;7.93;;;4.75;;
13469;SDS011;6807;48.682;9.032;2022-10-23T01:22:19;4.90;;;3.92;;
13469;SDS011;6807;48.682;9.032;2022-10-23T01:25:04;6.95;;;4.43;;
13469;SDS011;6807;48.682;9.032;2022-10-23T01:27:45;8.35;;;3.90;;
13469;SDS011;6807;48.682;9.032;2022-10-23T01:30:16;6.45;;;3.90;;
13469;SDS011;6807;48.682;9.032;2022-10-23T01:32:43;8.05;;;4.32;;
13469;SDS011;6807;48.682;9.032;2022-10-23T01:38:08;12.10;;;4.22;;
13469;SDS011;6807;48.682;9.032;2022-10-23T01:43:52;7.43;;;4.05;;
13469;SDS011;6807;48.682;9.032;2022-10-23T01:46:23;7.80;;;4.40;;
13469;SDS011;6807;48.682;9.032;2022-10-23T01:48:52;9.73;;;4.22;;
13469;SDS011;6807;48.682;9.032;2022-10-23T01:51:21;7.05;;;3.70;;
13469;SDS011;6807;48.682;9.032;2022-10-23T01:56:27;6.95;;;3.88;;
13469;SDS011;6807;48.682;9.032;2022-10-23T01:58:58;6.32;;;3.72;;
13469;SDS011;6807;48.682;9.032;2022-10-23T02:01:29;5.10;;;4.10;;
13469;SDS011;6807;48.682;9.032;2022-10-23T02:03:57;6.57;;;4.15;;
13469;SDS011;6807;48.682;9.032;2022-10-23T02:06:26;10.20;;;3.80;;
13469;SDS011;6807;48.682;9.032;2022-10-23T02:08:53;8.13;;;4.35;;
13469;SDS011;6807;48.682;9.032;2022-10-23T02:11:30;6.45;;;3.80;;
13469;SDS011;6807;48.682;9.032;2022-10-23T02:17:04;7.93;;;3.90;;
13469;SDS011;6807;48.682;9.032;2022-10-23T02:19:41;8.60;;;4.13;;
13469;SDS011;6807;48.682;9.032;2022-10-23T02:22:20;6.03;;;3.30;;
13469;SDS011;6807;48.682;9.032;2022-10-23T02:24:57;6.88;;;3.50;;
13469;SDS011;6807;48.682;9.032;2022-10-23T02:27:29;4.90;;;3.65;;
13469;SDS011;6807;48.682;9.032;2022-10-23T02:30:06;6.00;;;3.67;;
13469;SDS011;6807;48.682;9.032;2022-10-23T02:32:37;7.18;;;3.55;;
13469;SDS011;6807;48.682;9.032;2022-10-23T02:35:06;4.63;;;3.40;;
13469;SDS011;6807;48.682;9.032;2022-10-23T02:37:34;10.38;;;3.78;;
13469;SDS011;6807;48.682;9.032;2022-10-23T02:42:34;7.75;;;3.90;;
13469;SDS011;6807;48.682;9.032;2022-10-23T02:45:11;6.35;;;3.97;;
13469;SDS011;6807;48.682;9.032;2022-10-23T02:47:45;7.13;;;3.83;;
13469;SDS011;6807;48.682;9.032;2022-10-23T02:50:20;9.95;;;4.07;;
13469;SDS011;6807;48.682;9.032;2022-10-23T02:52:57;7.10;;;4.45;;
13469;SDS011;6807;48.682;9.032;2022-10-23T02:55:41;7.38;;;4.18;;
13469;SDS011;6807;48.682;9.032;2022-10-23T02:58:17;4.75;;;3.90;;
13469;SDS011;6807;48.682;9.032;2022-10-23T03:00:51;6.82;;;4.55;;
13469;SDS011;6807;48.682;9.032;2022-10-23T03:03:29;5.65;;;4.15;;
13469;SDS011;6807;48.682;9.032;2022-10-23T03:05:58;6.18;;;3.97;;
13469;SDS011;6807;48.682;9.032;2022-10-23T03:08:26;4.78;;;4.28;;
13469;SDS011;6807;48.682;9.032;2022-10-23T03:10:56;6.85;;;3.70;;
13469;SDS011;6807;48.682;9.032;2022-10-23T03:13:38;5.65;;;3.97;;
13469;SDS011;6807;48.682;9.032;2022-10-23T03:16:19;7.75;;;3.78;;
13469;SDS011;6807;48.682;9.032;2022-10-23T03:18:46;8.52;;;3.78;;
13469;SDS011;6807;48.682;9.032;2022-10-23T03:21:28;6.32;;;4.00;;
13469;SDS011;6807;48.682;9.032;2022-10-23T03:23:55;7.68;;;4.60;;
13469;SDS011;6807;48.682;9.032;2022-10-23T03:26:29;4.60;;;3.90;;
13469;SDS011;6807;48.682;9.032;2022-10-23T03:28:56;8.55;;;4.60;;
13469;SDS011;6807;48.682;9.032;2022-10-23T03:31:24;9.52;;;4.57;;
13469;SDS011;6807;48.682;9.032;2022-10-23T03:34:08;10.23;;;4.70;;
13469;SDS011;6807;48.682;9.032;2022-10-23T03:36:35;11.90;;;4.68;;
13469;SDS011;6807;48.682;9.032;2022-10-23T03:39:03;7.05;;;4.22;;
13469;SDS011;6807;48.682;9.032;2022-10-23T03:41:42;9.95;;;4.15;;
13469;SDS011;6807;48.682;9.032;2022-10-23T03:47:28;6.47;;;4.15;;
13469;SDS011;6807;48.682;9.032;2022-10-23T03:49:56;7.68;;;4.53;;
13469;SDS011;6807;48.682;9.032;2022-10-23T03:52:23;7.25;;;3.72;;
13469;SDS011;6807;48.682;9.032;2022-10-23T03:54:50;13.18;;;4.85;;
13469;SDS011;6807;48.682;9.032;2022-10-23T03:57:17;7.50;;;4.20;;
13469;SDS011;6807;48.682;9.032;2022-10-23T03:59:57;7.47;;;4.20;;
13469;SDS011;6807;48.682;9.032;2022-10-23T04:02:24;11.25;;;4.22;;
13469;SDS011;6807;48.682;9.032;2022-10-23T04:04:52;9.10;;;4.13;;
13469;SDS011;6807;48.682;9.032;2022-10-23T04:07:19;4.10;;;3.70;;
13469;SDS011;6807;48.682;9.032;2022-10-23T04:09:56;6.65;;;3.90;;
13469;SDS011;6807;48.682;9.032;2022-10-23T04:12:23;4.93;;;3.85;;
13469;SDS011;6807;48.682;9.032;2022-10-23T04:14:50;9.07;;;4.43;;
13469;SDS011;6807;48.682;9.032;2022-10-23T04:17:35;7.88;;;4.45;;
13469;SDS011;6807;48.682;9.032;2022-10-23T04:20:03;6.15;;;4.22;;
13469;SDS011;6807;48.682;9.032;2022-10-23T04:22:30;4.97;;;3.63;;
13469;SDS011;6807;48.682;9.032;2022-10-23T04:24:58;5.05;;;4.13;;
13469;SDS011;6807;48.682;9.032;2022-10-23T04:27:25;4.45;;;3.53;;
13469;SDS011;6807;48.682;9.032;2022-10-23T04:30:03;4.25;;;3.85;;
13469;SDS011;6807;48.682;9.032;2022-10-23T04:32:30;8.82;;;4.53;;
13469;SDS011;6807;48.682;9.032;2022-10-23T04:34:57;5.20;;;4.30;;
13469;SDS011;6807;48.682;9.032;2022-10-23T04:37:27;6.32;;;4.22;;
13469;SDS011;6807;48.682;9.032;2022-10-23T04:39:58;5.53;;;4.22;;
13469;SDS011;6807;48.682;9.032;2022-10-23T04:42:33;5.70;;;4.22;;
13469;SDS011;6807;48.682;9.032;2022-10-23T04:45:02;6.40;;;4.22;;
13469;SDS011;6807;48.682;9.032;2022-10-23T04:47:30;7.50;;;3.80;;
13469;SDS011;6807;48.682;9.032;2022-10-23T04:49:57;6.93;;;4.10;;
13469;SDS011;6807;48.682;9.032;2022-10-23T04:52:33;7.55;;;4.20;;
13469;SDS011;6807;48.682;9.032;2022-10-23T04:55:01;3.97;;;3.45;;
13469;SDS011;6807;48.682;9.032;2022-10-23T04:57:28;9.02;;;3.95;;
13469;SDS011;6807;48.682;9.032;2022-10-23T04:59:54;8.32;;;4.10;;
13469;SDS011;6807;48.682;9.032;2022-10-23T05:02:21;6.20;;;3.80;;
13469;SDS011;6807;48.682;9.032;2022-10-23T05:04:48;6.93;;;4.65;;
13469;SDS011;6807;48.682;9.032;2022-10-23T05:07:16;5.38;;;4.10;;
13469;SDS011;6807;48.682;9.032;2022-10-23T05:09:45;5.30;;;3.85;;
13469;SDS011;6807;48.682;9.032;2022-10-23T05:12:14;7.35;;;4.00;;
13469;SDS011;6807;48.682;9.032;2022-10-23T05:14:40;6.13;;;4.57;;
13469;SDS011;6807;48.682;9.032;2022-10-23T05:17:15;10.57;;;4.53;;
13469;SDS011;6807;48.682;9.032;2022-10-23T05:19:49;6.00;;;3.42;;
13469;SDS011;6807;48.682;9.032;2022-10-23T05:22:19;5.15;;;4.07;;
13469;SDS011;6807;48.682;9.032;2022-10-23T05:24:48;10.60;;;4.13;;
13469;SDS011;6807;48.682;9.032;2022-10-23T05:27:15;5.50;;;3.95;;
13469;SDS011;6807;48.682;9.032;2022-10-23T05:29:43;4.93;;;3.60;;
13469;SDS011;6807;48.682;9.032;2022-10-23T05:32:14;4.18;;;3.35;;
13469;SDS011;6807;48.682;9.032;2022-10-23T05:34:42;10.15;;;3.70;;
13469;SDS011;6807;48.682;9.032;2022-10-23T05:37:09;6.53;;;3.50;;
13469;SDS011;6807;48.682;9.032;2022-10-23T05:39:39;7.45;;;3.90;;
13469;SDS011;6807;48.682;9.032;2022-10-23T05:42:07;6.53;;;3.60;;
13469;SDS011;6807;48.682;9.032;2022-10-23T05:44:34;5.97;;;3.28;;
13469;SDS011;6807;48.682;9.032;2022-10-23T05:47:08;4.72;;;3.42;;
13469;SDS011;6807;48.682;9.032;2022-10-23T05:49:41;7.25;;;3.63;;
13469;SDS011;6807;48.682;9.032;2022-10-23T05:52:09;5.43;;;4.20;;
13469;SDS011;6807;48.682;9.032;2022-10-23T05:54:37;3.65;;;3.35;;
13469;SDS011;6807;48.682;9.032;2022-10-23T05:57:04;6.45;;;3.85;;
13469;SDS011;6807;48.682;9.032;2022-10-23T05:59:32;5.15;;;3.40;;
13469;SDS011;6807;48.682;9.032;2022-10-23T06:02:00;9.60;;;3.80;;
13469;SDS011;6807;48.682;9.032;2022-10-23T06:04:27;7.18;;;3.80;;
13469;SDS011;6807;48.682;9.032;2022-10-23T06:06:53;5.13;;;3.53;;
13469;SDS011;6807;48.682;9.032;2022-10-23T06:09:20;6.43;;;3.63;;
13469;SDS011;6807;48.682;9.032;2022-10-23T06:11:47;4.57;;;2.97;;
13469;SDS011;6807;48.682;9.032;2022-10-23T06:14:15;4.78;;;3.20;;
13469;SDS011;6807;48.682;9.032;2022-10-23T06:16:52;5.15;;;2.78;;
13469;SDS011;6807;48.682;9.032;2022-10-23T06:22:05;8.05;;;2.58;;
13469;SDS011;6807;48.682;9.032;2022-10-23T06:24:33;3.80;;;2.78;;
13469;SDS011;6807;48.682;9.032;2022-10-23T06:27:00;4.65;;;3.00;;
13469;SDS011;6807;48.682;9.032;2022-10-23T06:29:27;5.70;;;2.75;;
13469;SDS011;6807;48.682;9.032;2022-10-23T06:31:56;6.75;;;2.88;;
13469;SDS011;6807;48.682;9.032;2022-10-23T06:34:31;4.18;;;2.63;;
13469;SDS011;6807;48.682;9.032;2022-10-23T06:36:58;4.88;;;2.72;;
13469;SDS011;6807;48.682;9.032;2022-10-23T06:39:25;3.90;;;2.28;;
13469;SDS011;6807;48.682;9.032;2022-10-23T06:41:52;4.07;;;2.92;;
13469;SDS011;6807;48.682;9.032;2022-10-23T06:44:19;3.05;;;2.70;;
13469;SDS011;6807;48.682;9.032;2022-10-23T06:46:46;4.22;;;2.70;;
13469;SDS011;6807;48.682;9.032;2022-10-23T06:49:15;7.55;;;2.60;;
13469;SDS011;6807;48.682;9.032;2022-10-23T06:51:45;2.33;;;2.08;;
13469;SDS011;6807;48.682;9.032;2022-10-23T06:54:13;3.97;;;2.20;;
13469;SDS011;6807;48.682;9.032;2022-10-23T06:56:40;6.38;;;2.05;;
13469;SDS011;6807;48.682;9.032;2022-10-23T06:59:07;2.33;;;2.13;;
13469;SDS011;6807;48.682;9.032;2022-10-23T07:01:34;5.50;;;2.40;;
13469;SDS011;6807;48.682;9.032;2022-10-23T07:04:08;7.05;;;2.47;;
13469;SDS011;6807;48.682;9.032;2022-10-23T07:06:41;3.03;;;1.83;;
13469;SDS011;6807;48.682;9.032;2022-10-23T07:09:08;2.45;;;2.08;;
13469;SDS011;6807;48.682;9.032;2022-10-23T07:11:36;3.67;;;2.13;;
13469;SDS011;6807;48.682;9.032;2022-10-23T07:14:03;2.53;;;2.33;;
13469;SDS011;6807;48.682;9.032;2022-10-23T07:16:31;2.78;;;2.30;;
13469;SDS011;6807;48.682;9.032;2022-10-23T07:21:55;14.32;;;3.00;;
13469;SDS011;6807;48.682;9.032;2022-10-23T07:24:33;4.70;;;2.10;;
13469;SDS011;6807;48.682;9.032;2022-10-23T07:27:08;8.63;;;2.80;;
13469;SDS011;6807;48.682;9.032;2022-10-23T07:29:35;3.15;;;2.20;;
13469;SDS011;6807;48.682;9.032;2022-10-23T07:32:02;7.28;;;2.20;;
13469;SDS011;6807;48.682;9.032;2022-10-23T07:34:29;4.45;;;2.22;;
13469;SDS011;6807;48.682;9.032;2022-10-23T07:36:59;2.67;;;1.80;;
13469;SDS011;6807;48.682;9.032;2022-10-23T07:39:27;3.78;;;2.20;;
13469;SDS011;6807;48.682;9.032;2022-10-23T07:41:54;1.88;;;1.73;;
13469;SDS011;6807;48.682;9.032;2022-10-23T07:44:21;3.05;;;1.83;;
13469;SDS011;6807;48.682;9.032;2022-10-23T07:46:48;1.92;;;1.70;;
13469;SDS011;6807;48.682;9.032;2022-10-23T07:49:15;3.63;;;1.65;;
13469;SDS011;6807;48.682;9.032;2022-10-23T07:51:48;5.45;;;2.13;;
13469;SDS011;6807;48.682;9.032;2022-10-23T07:54:25;4.43;;;2.17;;
13469;SDS011;6807;48.682;9.032;2022-10-23T07:56:51;2.53;;;1.52;;
13469;SDS011;6807;48.682;9.032;2022-10-23T07:59:20;3.30;;;1.80;;
13469;SDS011;6807;48.682;9.032;2022-10-23T08:01:49;3.83;;;2.15;;
13469;SDS011;6807;48.682;9.032;2022-10-23T08:04:22;6.35;;;2.45;;
13469;SDS011;6807;48.682;9.032;2022-10-23T08:06:50;4.28;;;1.77;;
13469;SDS011;6807;48.682;9.032;2022-10-23T08:09:37;1.58;;;1.40;;
13469;SDS011;6807;48.682;9.032;2022-10-23T08:12:04;1.40;;;1.30;;
13469;SDS011;6807;48.682;9.032;2022-10-23T08:14:31;2.40;;;1.40;;
13469;SDS011;6807;48.682;9.032;2022-10-23T08:16:59;1.77;;;1.25;;
13469;SDS011;6807;48.682;9.032;2022-10-23T08:19:26;1.42;;;1.10;;
13469;SDS011;6807;48.682;9.032;2022-10-23T08:21:53;1.33;;;1.10;;
13469;SDS011;6807;48.682;9.032;2022-10-23T08:24:21;1.40;;;1.30;;
13469;SDS011;6807;48.682;9.032;2022-10-23T08:26:49;2.63;;;1.30;;
13469;SDS011;6807;48.682;9.032;2022-10-23T08:29:16;2.90;;;1.20;;
13469;SDS011;6807;48.682;9.032;2022-10-23T08:31:43;1.95;;;1.20;;
13469;SDS011;6807;48.682;9.032;2022-10-23T08:34:10;1.33;;;1.20;;
13469;SDS011;6807;48.682;9.032;2022-10-23T08:36:37;2.30;;;1.30;;
13469;SDS011;6807;48.682;9.032;2022-10-23T08:39:04;1.63;;;1.42;;
13469;SDS011;6807;48.682;9.032;2022-10-23T08:41:32;1.77;;;1.40;;
13469;SDS011;6807;48.682;9.032;2022-10-23T08:44:06;3.53;;;1.40;;
13469;SDS011;6807;48.682;9.032;2022-10-23T08:46:39;1.42;;;1.17;;
13469;SDS011;6807;48.682;9.032;2022-10-23T08:49:16;1.63;;;1.45;;
13469;SDS011;6807;48.682;9.032;2022-10-23T08:51:49;3.72;;;1.10;;
13469;SDS011;6807;48.682;9.032;2022-10-23T08:54:19;1.38;;;1.10;;
13469;SDS011;6807;48.682;9.032;2022-10-23T08:56:51;1.10;;;1.00;;
13469;SDS011;6807;48.682;9.032;2022-10-23T08:59:26;2.85;;;1.30;;
13469;SDS011;6807;48.682;9.032;2022-10-23T09:01:58;1.83;;;1.20;;
13469;SDS011;6807;48.682;9.032;2022-10-23T09:04:26;1.65;;;1.20;;
13469;SDS011;6807;48.682;9.032;2022-10-23T09:06:55;1.30;;;1.20;;
13469;SDS011;6807;48.682;9.032;2022-10-23T09:09:33;1.30;;;1.17;;
13469;SDS011;6807;48.682;9.032;2022-10-23T09:12:10;1.40;;;1.30;;
13469;SDS011;6807;48.682;9.032;2022-10-23T09:14:57;2.50;;;1.33;;
13469;SDS011;6807;48.682;9.032;2022-10-23T09:17:35;2.47;;;1.40;;
13469;SDS011;6807;48.682;9.032;2022-10-23T09:20:13;1.55;;;1.30;;
13469;SDS011;6807;48.682;9.032;2022-10-23T09:22:44;1.75;;;1.02;;
13469;SDS011;6807;48.682;9.032;2022-10-23T09:25:15;2.35;;;1.08;;
13469;SDS011;6807;48.682;9.032;2022-10-23T09:27:45;1.50;;;1.40;;
13469;SDS011;6807;48.682;9.032;2022-10-23T09:30:25;1.13;;;1.00;;
13469;SDS011;6807;48.682;9.032;2022-10-23T09:32:57;1.13;;;1.10;;
13469;SDS011;6807;48.682;9.032;2022-10-23T09:35:25;1.10;;;1.00;;
13469;SDS011;6807;48.682;9.032;2022-10-23T09:37:54;1.20;;;1.10;;
13469;SDS011;6807;48.682;9.032;2022-10-23T09:40:24;2.28;;;1.20;;
13469;SDS011;6807;48.682;9.032;2022-10-23T09:42:58;1.20;;;1.10;;
13469;SDS011;6807;48.682;9.032;2022-10-23T09:45:30;1.60;;;1.10;;
13469;SDS011;6807;48.682;9.032;2022-10-23T09:48:11;1.00;;;1.00;;
13469;SDS011;6807;48.682;9.032;2022-10-23T09:50:46;2.00;;;1.00;;
13469;SDS011;6807;48.682;9.032;2022-10-23T09:53:16;1.63;;;1.15;;
13469;SDS011;6807;48.682;9.032;2022-10-23T09:55:51;1.08;;;0.98;;
13469;SDS011;6807;48.682;9.032;2022-10-23T09:58:20;1.20;;;1.10;;
13469;SDS011;6807;48.682;9.032;2022-10-23T10:00:55;2.28;;;1.13;;
13469;SDS011;6807;48.682;9.032;2022-10-23T10:03:23;1.63;;;1.13;;
13469;SDS011;6807;48.682;9.032;2022-10-23T10:05:55;1.40;;;1.20;;
13469;SDS011;6807;48.682;9.032;2022-10-23T10:08:25;1.63;;;0.90;;
13469;SDS011;6807;48.682;9.032;2022-10-23T10:11:00;1.42;;;1.20;;
13469;SDS011;6807;48.682;9.032;2022-10-23T10:13:35;3.55;;;1.25;;
13469;SDS011;6807;48.682;9.032;2022-10-23T10:16:26;1.15;;;1.05;;
13469;SDS011;6807;48.682;9.032;2022-10-23T10:19:06;2.00;;;1.10;;
13469;SDS011;6807;48.682;9.032;2022-10-23T10:21:40;2.65;;;1.00;;
13469;SDS011;6807;48.682;9.032;2022-10-23T10:24:11;1.08;;;0.98;;
13469;SDS011;6807;48.682;9.032;2022-10-23T10:26:46;1.77;;;1.00;;
13469;SDS011;6807;48.682;9.032;2022-10-23T10:29:21;1.48;;;1.05;;
13469;SDS011;6807;48.682;9.032;2022-10-23T10:32:11;1.73;;;1.10;;
13469;SDS011;6807;48.682;9.032;2022-10-23T10:34:49;1.30;;;1.20;;
13469;SDS011;6807;48.682;9.032;2022-10-23T10:37:22;2.05;;;1.20;;
13469;SDS011;6807;48.682;9.032;2022-10-23T10:39:59;1.20;;;1.10;;
13469;SDS011;6807;48.682;9.032;2022-10-23T10:45:46;2.83;;;1.17;;
13469;SDS011;6807;48.682;9.032;2022-10-23T10:48:29;2.85;;;1.30;;
13469;SDS011;6807;48.682;9.032;2022-10-23T10:51:16;1.33;;;1.23;;
13469;SDS011;6807;48.682;9.032;2022-10-23T10:53:51;1.23;;;1.13;;
13469;SDS011;6807;48.682;9.032;2022-10-23T10:56:28;1.38;;;1.00;;
13469;SDS011;6807;48.682;9.032;2022-10-23T10:59:03;3.03;;;1.40;;
13469;SDS011;6807;48.682;9.032;2022-10-23T11:01:53;1.58;;;1.48;;
13469;SDS011;6807;48.682;9.032;2022-10-23T11:04:58;1.70;;;1.13;;
13469;SDS011;6807;48.682;9.032;2022-10-23T11:20:33;2.47;;;1.30;;
13469;SDS011;6807;48.682;9.032;2022-10-23T11:23:17;1.98;;;1.63;;
13469;SDS011;6807;48.682;9.032;2022-10-23T11:33:17;9.77;;;1.30;;
13469;SDS011;6807;48.682;9.032;2022-10-23T12:17:47;1.38;;;1.23;;
13469;SDS011;6807;48.682;9.032;2022-10-23T12:20:47;2.00;;;1.30;;
13469;SDS011;6807;48.682;9.032;2022-10-23T12:39:54;6.82;;;4.90;;
13469;SDS011;6807;48.682;9.032;2022-10-23T12:42:38;2.78;;;2.58;;
13469;SDS011;6807;48.682;9.032;2022-10-23T12:45:14;1.52;;;1.10;;
13469;SDS011;6807;48.682;9.032;2022-10-23T12:47:51;1.20;;;1.10;;
13469;SDS011;6807;48.682;9.032;2022-10-23T12:50:27;1.60;;;1.10;;
13469;SDS011;6807;48.682;9.032;2022-10-23T12:52:57;1.20;;;1.10;;
13469;SDS011;6807;48.682;9.032;2022-10-23T12:55:26;1.35;;;1.25;;
13469;SDS011;6807;48.682;9.032;2022-10-23T12:58:17;3.28;;;1.10;;
13469;SDS011;6807;48.682;9.032;2022-10-23T13:00:51;2.05;;;1.08;;
13469;SDS011;6807;48.682;9.032;2022-10-23T13:03:24;2.80;;;1.17;;
13469;SDS011;6807;48.682;9.032;2022-10-23T13:05:58;4.95;;;4.45;;
13469;SDS011;6807;48.682;9.032;2022-10-23T13:08:28;1.33;;;1.23;;
13469;SDS011;6807;48.682;9.032;2022-10-23T13:10:59;2.83;;;1.15;;
13469;SDS011;6807;48.682;9.032;2022-10-23T13:13:26;1.30;;;1.20;;
13469;SDS011;6807;48.682;9.032;2022-10-23T13:15:53;1.02;;;0.93;;
13469;SDS011;6807;48.682;9.032;2022-10-23T13:18:20;1.67;;;1.40;;
13469;SDS011;6807;48.682;9.032;2022-10-23T13:20:56;2.25;;;0.98;;
13469;SDS011;6807;48.682;9.032;2022-10-23T13:23:26;2.63;;;1.40;;
13469;SDS011;6807;48.682;9.032;2022-10-23T13:25:59;1.23;;;1.00;;
13469;SDS011;6807;48.682;9.032;2022-10-23T13:28:27;1.70;;;1.00;;
13469;SDS011;6807;48.682;9.032;2022-10-23T13:31:01;1.20;;;1.10;;
13469;SDS011;6807;48.682;9.032;2022-10-23T13:33:31;3.90;;;1.23;;
13469;SDS011;6807;48.682;9.032;2022-10-23T13:36:03;3.30;;;1.33;;
13469;SDS011;6807;48.682;9.032;2022-10-23T13:38:32;2.88;;;1.10;;
13469;SDS011;6807;48.682;9.032;2022-10-23T13:41:03;2.65;;;1.50;;
13469;SDS011;6807;48.682;9.032;2022-10-23T13:43:34;1.10;;;1.10;;
13469;SDS011;6807;48.682;9.032;2022-10-23T13:46:01;4.40;;;1.67;;
13469;SDS011;6807;48.682;9.032;2022-10-23T13:48:28;3.22;;;1.38;;
13469;SDS011;6807;48.682;9.032;2022-10-23T13:51:00;1.90;;;1.23;;
13469;SDS011;6807;48.682;9.032;2022-10-23T13:53:59;5.60;;;1.33;;
13469;SDS011;6807;48.682;9.032;2022-10-23T13:59:29;2.33;;;1.20;;
13469;SDS011;6807;48.682;9.032;2022-10-23T14:08:12;1.80;;;1.10;;
13469;SDS011;6807;48.682;9.032;2022-10-23T14:11:05;1.30;;;1.20;;
13469;SDS011;6807;48.682;9.032;2022-10-23T14:20:38;2.00;;;1.80;;
13469;SDS011;6807;48.682;9.032;2022-10-23T14:39:51;4.75;;;1.45;;
13469;SDS011;6807;48.682;9.032;2022-10-23T14:42:21;1.70;;;1.50;;
13469;SDS011;6807;48.682;9.032;2022-10-23T14:44:57;3.38;;;1.48;;
13469;SDS011;6807;48.682;9.032;2022-10-23T14:47:26;4.45;;;1.50;;
13469;SDS011;6807;48.682;9.032;2022-10-23T14:50:23;1.52;;;1.30;;
13469;SDS011;6807;48.682;9.032;2022-10-23T14:52:51;2.50;;;1.30;;
13469;SDS011;6807;48.682;9.032;2022-10-23T14:55:22;2.53;;;1.67;;
13469;SDS011;6807;48.682;9.032;2022-10-23T14:57:52;5.05;;;1.30;;
13469;SDS011;6807;48.682;9.032;2022-10-23T15:00:19;4.50;;;1.50;;
13469;SDS011;6807;48.682;9.032;2022-10-23T15:02:46;3.08;;;1.73;;
13469;SDS011;6807;48.682;9.032;2022-10-23T15:05:13;2.70;;;1.45;;
13469;SDS011;6807;48.682;9.032;2022-10-23T15:07:41;2.72;;;1.35;;
13469;SDS011;6807;48.682;9.032;2022-10-23T15:10:08;3.83;;;1.80;;
13469;SDS011;6807;48.682;9.032;2022-10-23T15:12:35;3.35;;;1.70;;
13469;SDS011;6807;48.682;9.032;2022-10-23T15:15:04;2.53;;;1.70;;
13469;SDS011;6807;48.682;9.032;2022-10-23T15:17:32;1.58;;;1.48;;
13469;SDS011;6807;48.682;9.032;2022-10-23T15:19:59;1.40;;;1.20;;
13469;SDS011;6807;48.682;9.032;2022-10-23T15:22:26;2.40;;;1.45;;
13469;SDS011;6807;48.682;9.032;2022-10-23T15:24:55;4.22;;;1.98;;
13469;SDS011;6807;48.682;9.032;2022-10-23T15:27:21;2.85;;;1.55;;
13469;SDS011;6807;48.682;9.032;2022-10-23T15:29:48;3.80;;;1.50;;
13469;SDS011;6807;48.682;9.032;2022-10-23T15:32:15;1.88;;;1.35;;
13469;SDS011;6807;48.682;9.032;2022-10-23T15:34:42;1.60;;;1.48;;
13469;SDS011;6807;48.682;9.032;2022-10-23T15:37:11;2.20;;;1.95;;
13469;SDS011;6807;48.682;9.032;2022-10-23T15:39:38;5.43;;;1.42;;
13469;SDS011;6807;48.682;9.032;2022-10-23T15:42:06;2.60;;;1.50;;
13469;SDS011;6807;48.682;9.032;2022-10-23T15:44:35;3.30;;;1.50;;
13469;SDS011;6807;48.682;9.032;2022-10-23T15:47:02;1.95;;;1.85;;
13469;SDS011;6807;48.682;9.032;2022-10-23T15:49:29;1.77;;;1.50;;
13469;SDS011;6807;48.682;9.032;2022-10-23T15:51:56;3.90;;;2.13;;
13469;SDS011;6807;48.682;9.032;2022-10-23T15:54:23;5.32;;;1.90;;
13469;SDS011;6807;48.682;9.032;2022-10-23T15:56:51;3.05;;;1.80;;
13469;SDS011;6807;48.682;9.032;2022-10-23T15:59:21;2.53;;;2.00;;
13469;SDS011;6807;48.682;9.032;2022-10-23T16:01:49;7.47;;;2.72;;
13469;SDS011;6807;48.682;9.032;2022-10-23T16:04:16;6.03;;;1.67;;
13469;SDS011;6807;48.682;9.032;2022-10-23T16:06:43;22.30;;;2.78;;
13469;SDS011;6807;48.682;9.032;2022-10-23T16:09:13;7.18;;;3.30;;
13469;SDS011;6807;48.682;9.032;2022-10-23T16:12:43;6.97;;;2.78;;
13469;SDS011;6807;48.682;9.032;2022-10-23T16:18:07;3.70;;;2.80;;
13469;SDS011;6807;48.682;9.032;2022-10-23T16:24:13;4.63;;;2.65;;
13469;SDS011;6807;48.682;9.032;2022-10-23T16:26:40;9.43;;;6.05;;
13469;SDS011;6807;48.682;9.032;2022-10-23T16:29:07;6.35;;;3.30;;
13469;SDS011;6807;48.682;9.032;2022-10-23T16:31:35;11.02;;;6.85;;
13469;SDS011;6807;48.682;9.032;2022-10-23T16:34:02;3.80;;;1.77;;
13469;SDS011;6807;48.682;9.032;2022-10-23T16:36:30;1.88;;;1.50;;
13469;SDS011;6807;48.682;9.032;2022-10-23T16:38:57;3.85;;;1.80;;
13469;SDS011;6807;48.682;9.032;2022-10-23T16:41:24;4.20;;;1.80;;
13469;SDS011;6807;48.682;9.032;2022-10-23T16:43:50;9.90;;;1.88;;
13469;SDS011;6807;48.682;9.032;2022-10-23T16:46:18;5.45;;;1.92;;
13469;SDS011;6807;48.682;9.032;2022-10-23T16:48:48;4.80;;;1.80;;
13469;SDS011;6807;48.682;9.032;2022-10-23T16:51:17;3.95;;;1.65;;
13469;SDS011;6807;48.682;9.032;2022-10-23T16:53:46;10.18;;;2.03;;
13469;SDS011;6807;48.682;9.032;2022-10-23T16:56:14;3.05;;;1.65;;
13469;SDS011;6807;48.682;9.032;2022-10-23T16:58:43;5.30;;;1.63;;
13469;SDS011;6807;48.682;9.032;2022-10-23T17:01:11;7.75;;;2.60;;
13469;SDS011;6807;48.682;9.032;2022-10-23T17:03:40;4.60;;;1.70;;
13469;SDS011;6807;48.682;9.032;2022-10-23T17:06:10;3.17;;;1.80;;
13469;SDS011;6807;48.682;9.032;2022-10-23T17:08:39;4.55;;;2.00;;
13469;SDS011;6807;48.682;9.032;2022-10-23T17:11:07;4.47;;;2.00;;
13469;SDS011;6807;48.682;9.032;2022-10-23T17:13:36;4.00;;;1.90;;
13469;SDS011;6807;48.682;9.032;2022-10-23T17:16:07;4.25;;;1.73;;
13469;SDS011;6807;48.682;9.032;2022-10-23T17:18:36;5.32;;;1.75;;
13469;SDS011;6807;48.682;9.032;2022-10-23T17:21:04;4.43;;;2.05;;
13469;SDS011;6807;48.682;9.032;2022-10-23T17:23:34;3.88;;;1.85;;
13469;SDS011;6807;48.682;9.032;2022-10-23T17:26:01;6.28;;;2.60;;
13469;SDS011;6807;48.682;9.032;2022-10-23T17:28:32;4.47;;;2.20;;
13469;SDS011;6807;48.682;9.032;2022-10-23T17:31:04;5.03;;;2.80;;
13469;SDS011;6807;48.682;9.032;2022-10-23T17:33:45;4.03;;;2.80;;
13469;SDS011;6807;48.682;9.032;2022-10-23T17:39:20;5.38;;;2.58;;
13469;SDS011;6807;48.682;9.032;2022-10-23T17:41:58;6.45;;;2.75;;
13469;SDS011;6807;48.682;9.032;2022-10-23T17:47:11;4.70;;;2.72;;
13469;SDS011;6807;48.682;9.032;2022-10-23T18:24:43;5.40;;;2.80;;
13469;SDS011;6807;48.682;9.032;2022-10-23T18:27:10;5.97;;;2.53;;
13469;SDS011;6807;48.682;9.032;2022-10-23T18:29:37;3.95;;;2.55;;
13469;SDS011;6807;48.682;9.032;2022-10-23T18:32:07;4.80;;;3.45;;
13469;SDS011;6807;48.682;9.032;2022-10-23T18:34:34;12.10;;;3.30;;
13469;SDS011;6807;48.682;9.032;2022-10-23T18:37:01;8.67;;;3.77;;
13469;SDS011;6807;48.682;9.032;2022-10-23T18:39:28;7.00;;;3.67;;
13469;SDS011;6807;48.682;9.032;2022-10-23T18:41:57;8.65;;;3.13;;
13469;SDS011;6807;48.682;9.032;2022-10-23T18:44:24;5.82;;;3.25;;
13469;SDS011;6807;48.682;9.032;2022-10-23T18:46:54;8.32;;;3.47;;
13469;SDS011;6807;48.682;9.032;2022-10-23T18:49:39;9.25;;;3.55;;